sensor_id;sensor_type;location;lat;lon;timestamp;P1;durP1;ratioP1;P2;durP2;ratioP2
64857;SDS011;51335;51.148;6.950;2022-11-15T00:00:23;8.15;;;5.47;;
64857;SDS011;51335;51.148;6.950;2022-11-15T00:00:53;10.15;;;5.75;;
64857;SDS011;51335;51.148;6.950;2022-11-15T00:01:23;9.93;;;5.78;;
64857;SDS011;51335;51.148;6.950;2022-11-15T00:01:54;8.75;;;5.72;;
64857;SDS011;51335;51.148;6.950;2022-11-15T00:02:24;8.75;;;5.45;;
64857;SDS011;51335;51.148;6.950;2022-11-15T00:02:54;11.02;;;6.45;;
64857;SDS011;51335;51.148;6.950;2022-11-15T00:03:26;12.13;;;6.07;;
64857;SDS011;51335;51.148;6.950;2022-11-15T00:03:57;11.23;;;6.18;;
64857;SDS011;51335;51.148;6.950;2022-11-15T00:04:27;12.18;;;6.25;;
64857;SDS011;51335;51.148;6.950;2022-11-15T00:04:57;7.93;;;5.38;;
64857;SDS011;51335;51.148;6.950;2022-11-15T00:05:28;10.70;;;5.80;;
64857;SDS011;51335;51.148;6.950;2022-11-15T00:06:02;9.45;;;6.20;;
64857;SDS011;51335;51.148;6.950;2022-11-15T00:06:33;9.40;;;6.15;;
64857;SDS011;51335;51.148;6.950;2022-11-15T00:07:03;10.07;;;5.93;;
64857;SDS011;51335;51.148;6.950;2022-11-15T00:07:34;9.10;;;5.72;;
64857;SDS011;51335;51.148;6.950;2022-11-15T00:08:04;9.15;;;5.55;;
64857;SDS011;51335;51.148;6.950;2022-11-15T00:08:34;10.55;;;6.15;;
64857;SDS011;51335;51.148;6.950;2022-11-15T00:09:05;9.55;;;5.50;;
64857;SDS011;51335;51.148;6.950;2022-11-15T00:09:35;7.78;;;5.68;;
64857;SDS011;51335;51.148;6.950;2022-11-15T00:10:05;10.30;;;5.40;;
64857;SDS011;51335;51.148;6.950;2022-11-15T00:10:36;10.00;;;5.97;;
64857;SDS011;51335;51.148;6.950;2022-11-15T00:11:08;11.38;;;6.28;;
64857;SDS011;51335;51.148;6.950;2022-11-15T00:11:40;10.45;;;6.05;;
64857;SDS011;51335;51.148;6.950;2022-11-15T00:12:10;10.27;;;5.65;;
64857;SDS011;51335;51.148;6.950;2022-11-15T00:12:41;8.05;;;5.30;;
64857;SDS011;51335;51.148;6.950;2022-11-15T00:13:11;8.55;;;5.60;;
64857;SDS011;51335;51.148;6.950;2022-11-15T00:13:43;8.25;;;5.30;;
64857;SDS011;51335;51.148;6.950;2022-11-15T00:14:13;11.18;;;6.00;;
64857;SDS011;51335;51.148;6.950;2022-11-15T00:14:43;9.70;;;5.70;;
64857;SDS011;51335;51.148;6.950;2022-11-15T00:15:13;12.68;;;5.45;;
64857;SDS011;51335;51.148;6.950;2022-11-15T00:15:44;10.95;;;5.93;;
64857;SDS011;51335;51.148;6.950;2022-11-15T00:16:14;10.55;;;5.53;;
64857;SDS011;51335;51.148;6.950;2022-11-15T00:16:44;10.90;;;5.75;;
64857;SDS011;51335;51.148;6.950;2022-11-15T00:17:15;11.07;;;5.93;;
64857;SDS011;51335;51.148;6.950;2022-11-15T00:17:47;9.40;;;5.53;;
64857;SDS011;51335;51.148;6.950;2022-11-15T00:18:18;8.65;;;5.43;;
64857;SDS011;51335;51.148;6.950;2022-11-15T00:18:49;10.05;;;5.38;;
64857;SDS011;51335;51.148;6.950;2022-11-15T00:19:20;8.80;;;5.25;;
64857;SDS011;51335;51.148;6.950;2022-11-15T00:19:50;12.30;;;5.95;;
64857;SDS011;51335;51.148;6.950;2022-11-15T00:20:20;9.32;;;6.03;;
64857;SDS011;51335;51.148;6.950;2022-11-15T00:20:50;13.95;;;5.72;;
64857;SDS011;51335;51.148;6.950;2022-11-15T00:21:21;10.98;;;5.30;;
64857;SDS011;51335;51.148;6.950;2022-11-15T00:21:51;11.15;;;5.70;;
64857;SDS011;51335;51.148;6.950;2022-11-15T00:22:21;10.75;;;5.40;;
64857;SDS011;51335;51.148;6.950;2022-11-15T00:22:52;13.30;;;5.53;;
64857;SDS011;51335;51.148;6.950;2022-11-15T00:23:22;8.55;;;5.35;;
64857;SDS011;51335;51.148;6.950;2022-11-15T00:23:52;9.80;;;5.50;;
64857;SDS011;51335;51.148;6.950;2022-11-15T00:24:23;12.07;;;5.40;;
64857;SDS011;51335;51.148;6.950;2022-11-15T00:24:53;11.05;;;5.90;;
64857;SDS011;51335;51.148;6.950;2022-11-15T00:25:23;9.02;;;5.43;;
64857;SDS011;51335;51.148;6.950;2022-11-15T00:25:57;7.43;;;5.40;;
64857;SDS011;51335;51.148;6.950;2022-11-15T00:26:28;8.60;;;5.50;;
64857;SDS011;51335;51.148;6.950;2022-11-15T00:26:58;8.48;;;5.40;;
64857;SDS011;51335;51.148;6.950;2022-11-15T00:27:28;7.93;;;5.38;;
64857;SDS011;51335;51.148;6.950;2022-11-15T00:27:59;11.45;;;5.53;;
64857;SDS011;51335;51.148;6.950;2022-11-15T00:28:30;6.75;;;4.88;;
64857;SDS011;51335;51.148;6.950;2022-11-15T00:29:00;8.50;;;5.28;;
64857;SDS011;51335;51.148;6.950;2022-11-15T00:29:30;7.78;;;5.20;;
64857;SDS011;51335;51.148;6.950;2022-11-15T00:30:01;10.70;;;5.68;;
64857;SDS011;51335;51.148;6.950;2022-11-15T00:30:31;9.15;;;5.30;;
64857;SDS011;51335;51.148;6.950;2022-11-15T00:31:06;9.38;;;5.38;;
64857;SDS011;51335;51.148;6.950;2022-11-15T00:31:38;9.30;;;5.45;;
64857;SDS011;51335;51.148;6.950;2022-11-15T00:32:09;10.55;;;5.60;;
64857;SDS011;51335;51.148;6.950;2022-11-15T00:32:40;10.80;;;5.10;;
64857;SDS011;51335;51.148;6.950;2022-11-15T00:33:10;8.55;;;5.28;;
64857;SDS011;51335;51.148;6.950;2022-11-15T00:33:42;8.15;;;5.55;;
64857;SDS011;51335;51.148;6.950;2022-11-15T00:34:13;9.98;;;5.38;;
64857;SDS011;51335;51.148;6.950;2022-11-15T00:34:43;8.27;;;5.50;;
64857;SDS011;51335;51.148;6.950;2022-11-15T00:35:13;9.93;;;5.18;;
64857;SDS011;51335;51.148;6.950;2022-11-15T00:35:44;11.63;;;5.60;;
64857;SDS011;51335;51.148;6.950;2022-11-15T00:36:14;9.45;;;5.15;;
64857;SDS011;51335;51.148;6.950;2022-11-15T00:36:44;10.88;;;5.78;;
64857;SDS011;51335;51.148;6.950;2022-11-15T00:37:15;9.73;;;5.25;;
64857;SDS011;51335;51.148;6.950;2022-11-15T00:37:45;9.77;;;5.93;;
64857;SDS011;51335;51.148;6.950;2022-11-15T00:38:15;9.00;;;5.50;;
64857;SDS011;51335;51.148;6.950;2022-11-15T00:38:46;9.07;;;5.55;;
64857;SDS011;51335;51.148;6.950;2022-11-15T00:39:16;8.60;;;5.07;;
64857;SDS011;51335;51.148;6.950;2022-11-15T00:39:46;8.77;;;5.57;;
64857;SDS011;51335;51.148;6.950;2022-11-15T00:40:17;8.65;;;5.25;;
64857;SDS011;51335;51.148;6.950;2022-11-15T00:40:47;8.80;;;5.68;;
64857;SDS011;51335;51.148;6.950;2022-11-15T00:41:17;6.50;;;5.10;;
64857;SDS011;51335;51.148;6.950;2022-11-15T00:41:47;8.90;;;5.40;;
64857;SDS011;51335;51.148;6.950;2022-11-15T00:42:18;8.60;;;5.20;;
64857;SDS011;51335;51.148;6.950;2022-11-15T00:42:48;10.55;;;5.70;;
64857;SDS011;51335;51.148;6.950;2022-11-15T00:43:18;10.90;;;5.45;;
64857;SDS011;51335;51.148;6.950;2022-11-15T00:43:48;11.00;;;5.63;;
64857;SDS011;51335;51.148;6.950;2022-11-15T00:44:19;10.60;;;5.30;;
64857;SDS011;51335;51.148;6.950;2022-11-15T00:44:50;10.55;;;5.28;;
64857;SDS011;51335;51.148;6.950;2022-11-15T00:45:21;8.38;;;4.93;;
64857;SDS011;51335;51.148;6.950;2022-11-15T00:45:51;8.65;;;5.13;;
64857;SDS011;51335;51.148;6.950;2022-11-15T00:46:21;9.20;;;5.30;;
64857;SDS011;51335;51.148;6.950;2022-11-15T00:46:52;9.38;;;5.13;;
64857;SDS011;51335;51.148;6.950;2022-11-15T00:47:22;7.57;;;5.20;;
64857;SDS011;51335;51.148;6.950;2022-11-15T00:47:52;11.05;;;5.97;;
64857;SDS011;51335;51.148;6.950;2022-11-15T00:48:23;9.98;;;5.50;;
64857;SDS011;51335;51.148;6.950;2022-11-15T00:48:53;8.95;;;5.22;;
64857;SDS011;51335;51.148;6.950;2022-11-15T00:49:23;7.60;;;4.95;;
64857;SDS011;51335;51.148;6.950;2022-11-15T00:49:54;7.43;;;5.00;;
64857;SDS011;51335;51.148;6.950;2022-11-15T00:50:24;10.52;;;5.22;;
64857;SDS011;51335;51.148;6.950;2022-11-15T00:50:54;10.85;;;5.57;;
64857;SDS011;51335;51.148;6.950;2022-11-15T00:51:25;8.68;;;4.97;;
64857;SDS011;51335;51.148;6.950;2022-11-15T00:51:56;8.50;;;5.10;;
64857;SDS011;51335;51.148;6.950;2022-11-15T00:52:26;10.65;;;5.20;;
64857;SDS011;51335;51.148;6.950;2022-11-15T00:52:56;7.78;;;4.68;;
64857;SDS011;51335;51.148;6.950;2022-11-15T00:53:27;11.07;;;5.50;;
64857;SDS011;51335;51.148;6.950;2022-11-15T00:53:57;12.43;;;4.93;;
64857;SDS011;51335;51.148;6.950;2022-11-15T00:54:28;8.00;;;5.10;;
64857;SDS011;51335;51.148;6.950;2022-11-15T00:54:58;7.30;;;5.00;;
64857;SDS011;51335;51.148;6.950;2022-11-15T00:55:28;9.20;;;5.30;;
64857;SDS011;51335;51.148;6.950;2022-11-15T00:55:59;8.52;;;5.15;;
64857;SDS011;51335;51.148;6.950;2022-11-15T00:56:29;11.55;;;4.85;;
64857;SDS011;51335;51.148;6.950;2022-11-15T00:56:59;8.45;;;5.10;;
64857;SDS011;51335;51.148;6.950;2022-11-15T00:57:29;10.77;;;4.88;;
64857;SDS011;51335;51.148;6.950;2022-11-15T00:58:00;9.68;;;5.20;;
64857;SDS011;51335;51.148;6.950;2022-11-15T00:58:30;8.85;;;5.38;;
64857;SDS011;51335;51.148;6.950;2022-11-15T00:59:00;8.68;;;5.22;;
64857;SDS011;51335;51.148;6.950;2022-11-15T00:59:31;9.00;;;5.25;;
64857;SDS011;51335;51.148;6.950;2022-11-15T01:00:01;9.30;;;5.03;;
64857;SDS011;51335;51.148;6.950;2022-11-15T01:00:32;8.45;;;5.18;;
64857;SDS011;51335;51.148;6.950;2022-11-15T01:01:09;7.20;;;5.22;;
64857;SDS011;51335;51.148;6.950;2022-11-15T01:01:41;7.32;;;4.82;;
64857;SDS011;51335;51.148;6.950;2022-11-15T01:02:11;11.13;;;5.15;;
64857;SDS011;51335;51.148;6.950;2022-11-15T01:02:41;8.10;;;4.97;;
64857;SDS011;51335;51.148;6.950;2022-11-15T01:03:11;8.95;;;5.20;;
64857;SDS011;51335;51.148;6.950;2022-11-15T01:03:42;8.65;;;5.45;;
64857;SDS011;51335;51.148;6.950;2022-11-15T01:04:12;8.18;;;4.90;;
64857;SDS011;51335;51.148;6.950;2022-11-15T01:04:43;9.45;;;5.18;;
64857;SDS011;51335;51.148;6.950;2022-11-15T01:05:13;13.10;;;5.35;;
64857;SDS011;51335;51.148;6.950;2022-11-15T01:05:44;7.05;;;4.95;;
64857;SDS011;51335;51.148;6.950;2022-11-15T01:06:14;8.30;;;4.93;;
64857;SDS011;51335;51.148;6.950;2022-11-15T01:06:44;7.55;;;5.05;;
64857;SDS011;51335;51.148;6.950;2022-11-15T01:07:15;8.95;;;5.10;;
64857;SDS011;51335;51.148;6.950;2022-11-15T01:07:45;8.00;;;5.13;;
64857;SDS011;51335;51.148;6.950;2022-11-15T01:08:15;8.93;;;5.03;;
64857;SDS011;51335;51.148;6.950;2022-11-15T01:08:46;7.60;;;5.18;;
64857;SDS011;51335;51.148;6.950;2022-11-15T01:09:16;7.25;;;5.07;;
64857;SDS011;51335;51.148;6.950;2022-11-15T01:09:47;9.10;;;5.43;;
64857;SDS011;51335;51.148;6.950;2022-11-15T01:10:17;9.98;;;5.40;;
64857;SDS011;51335;51.148;6.950;2022-11-15T01:10:47;7.38;;;5.20;;
64857;SDS011;51335;51.148;6.950;2022-11-15T01:11:18;9.23;;;5.10;;
64857;SDS011;51335;51.148;6.950;2022-11-15T01:11:48;13.05;;;5.20;;
64857;SDS011;51335;51.148;6.950;2022-11-15T01:12:18;8.88;;;5.30;;
64857;SDS011;51335;51.148;6.950;2022-11-15T01:12:49;7.90;;;4.90;;
64857;SDS011;51335;51.148;6.950;2022-11-15T01:13:19;9.82;;;5.05;;
64857;SDS011;51335;51.148;6.950;2022-11-15T01:13:50;12.27;;;5.80;;
64857;SDS011;51335;51.148;6.950;2022-11-15T01:14:20;9.02;;;5.18;;
64857;SDS011;51335;51.148;6.950;2022-11-15T01:14:50;8.95;;;5.18;;
64857;SDS011;51335;51.148;6.950;2022-11-15T01:15:20;10.38;;;5.35;;
64857;SDS011;51335;51.148;6.950;2022-11-15T01:15:51;8.90;;;5.35;;
64857;SDS011;51335;51.148;6.950;2022-11-15T01:16:21;7.68;;;5.00;;
64857;SDS011;51335;51.148;6.950;2022-11-15T01:16:51;7.07;;;5.30;;
64857;SDS011;51335;51.148;6.950;2022-11-15T01:17:21;7.80;;;5.15;;
64857;SDS011;51335;51.148;6.950;2022-11-15T01:17:52;7.93;;;5.00;;
64857;SDS011;51335;51.148;6.950;2022-11-15T01:18:22;7.95;;;4.88;;
64857;SDS011;51335;51.148;6.950;2022-11-15T01:18:52;7.88;;;5.00;;
64857;SDS011;51335;51.148;6.950;2022-11-15T01:19:23;8.18;;;5.50;;
64857;SDS011;51335;51.148;6.950;2022-11-15T01:19:53;11.18;;;5.18;;
64857;SDS011;51335;51.148;6.950;2022-11-15T01:20:23;8.38;;;4.75;;
64857;SDS011;51335;51.148;6.950;2022-11-15T01:20:54;10.25;;;5.30;;
64857;SDS011;51335;51.148;6.950;2022-11-15T01:21:24;10.18;;;5.22;;
64857;SDS011;51335;51.148;6.950;2022-11-15T01:21:55;7.45;;;4.95;;
64857;SDS011;51335;51.148;6.950;2022-11-15T01:22:25;8.40;;;4.97;;
64857;SDS011;51335;51.148;6.950;2022-11-15T01:22:55;9.27;;;5.18;;
64857;SDS011;51335;51.148;6.950;2022-11-15T01:23:26;6.60;;;4.90;;
64857;SDS011;51335;51.148;6.950;2022-11-15T01:23:56;8.00;;;4.90;;
64857;SDS011;51335;51.148;6.950;2022-11-15T01:24:27;10.27;;;5.07;;
64857;SDS011;51335;51.148;6.950;2022-11-15T01:24:57;8.82;;;4.72;;
64857;SDS011;51335;51.148;6.950;2022-11-15T01:25:28;7.35;;;4.60;;
64857;SDS011;51335;51.148;6.950;2022-11-15T01:25:59;6.43;;;4.68;;
64857;SDS011;51335;51.148;6.950;2022-11-15T01:26:30;7.15;;;4.78;;
64857;SDS011;51335;51.148;6.950;2022-11-15T01:27:00;9.88;;;5.70;;
64857;SDS011;51335;51.148;6.950;2022-11-15T01:27:30;9.48;;;5.30;;
64857;SDS011;51335;51.148;6.950;2022-11-15T01:28:00;8.57;;;4.90;;
64857;SDS011;51335;51.148;6.950;2022-11-15T01:28:31;8.20;;;5.05;;
64857;SDS011;51335;51.148;6.950;2022-11-15T01:29:03;11.38;;;5.20;;
64857;SDS011;51335;51.148;6.950;2022-11-15T01:29:34;9.07;;;5.13;;
64857;SDS011;51335;51.148;6.950;2022-11-15T01:30:04;8.75;;;5.00;;
64857;SDS011;51335;51.148;6.950;2022-11-15T01:30:35;8.00;;;5.20;;
64857;SDS011;51335;51.148;6.950;2022-11-15T01:31:07;8.80;;;4.97;;
64857;SDS011;51335;51.148;6.950;2022-11-15T01:31:41;7.78;;;4.75;;
64857;SDS011;51335;51.148;6.950;2022-11-15T01:32:12;7.97;;;4.70;;
64857;SDS011;51335;51.148;6.950;2022-11-15T01:32:42;8.82;;;5.10;;
64857;SDS011;51335;51.148;6.950;2022-11-15T01:33:12;9.88;;;5.00;;
64857;SDS011;51335;51.148;6.950;2022-11-15T01:33:42;9.63;;;5.00;;
64857;SDS011;51335;51.148;6.950;2022-11-15T01:34:13;10.05;;;4.85;;
64857;SDS011;51335;51.148;6.950;2022-11-15T01:34:43;6.65;;;4.80;;
64857;SDS011;51335;51.148;6.950;2022-11-15T01:35:13;8.18;;;5.25;;
64857;SDS011;51335;51.148;6.950;2022-11-15T01:35:44;9.48;;;5.03;;
64857;SDS011;51335;51.148;6.950;2022-11-15T01:36:15;9.63;;;5.50;;
64857;SDS011;51335;51.148;6.950;2022-11-15T01:36:47;10.35;;;5.05;;
64857;SDS011;51335;51.148;6.950;2022-11-15T01:37:19;10.85;;;5.05;;
64857;SDS011;51335;51.148;6.950;2022-11-15T01:37:49;8.65;;;4.97;;
64857;SDS011;51335;51.148;6.950;2022-11-15T01:38:19;8.60;;;5.07;;
64857;SDS011;51335;51.148;6.950;2022-11-15T01:38:56;9.00;;;4.85;;
64857;SDS011;51335;51.148;6.950;2022-11-15T01:39:27;6.95;;;4.80;;
64857;SDS011;51335;51.148;6.950;2022-11-15T01:39:58;8.65;;;4.68;;
64857;SDS011;51335;51.148;6.950;2022-11-15T01:40:28;8.98;;;4.80;;
64857;SDS011;51335;51.148;6.950;2022-11-15T01:40:58;8.20;;;5.18;;
64857;SDS011;51335;51.148;6.950;2022-11-15T01:41:30;8.45;;;4.88;;
64857;SDS011;51335;51.148;6.950;2022-11-15T01:42:02;8.43;;;4.70;;
64857;SDS011;51335;51.148;6.950;2022-11-15T01:42:33;9.35;;;4.68;;
64857;SDS011;51335;51.148;6.950;2022-11-15T01:43:19;8.07;;;4.85;;
64857;SDS011;51335;51.148;6.950;2022-11-15T01:43:57;10.85;;;4.93;;
64857;SDS011;51335;51.148;6.950;2022-11-15T01:44:49;7.57;;;4.70;;
64857;SDS011;51335;51.148;6.950;2022-11-15T01:45:20;7.05;;;4.93;;
64857;SDS011;51335;51.148;6.950;2022-11-15T01:45:52;9.52;;;4.80;;
64857;SDS011;51335;51.148;6.950;2022-11-15T01:46:58;6.65;;;4.72;;
64857;SDS011;51335;51.148;6.950;2022-11-15T01:47:33;9.50;;;4.97;;
64857;SDS011;51335;51.148;6.950;2022-11-15T01:48:07;7.32;;;5.10;;
64857;SDS011;51335;51.148;6.950;2022-11-15T01:48:39;9.07;;;4.80;;
64857;SDS011;51335;51.148;6.950;2022-11-15T01:49:11;9.05;;;4.90;;
64857;SDS011;51335;51.148;6.950;2022-11-15T01:50:30;9.90;;;4.70;;
64857;SDS011;51335;51.148;6.950;2022-11-15T01:51:03;6.70;;;4.75;;
64857;SDS011;51335;51.148;6.950;2022-11-15T01:51:38;10.68;;;5.28;;
64857;SDS011;51335;51.148;6.950;2022-11-15T01:52:10;9.05;;;5.18;;
64857;SDS011;51335;51.148;6.950;2022-11-15T01:52:44;10.95;;;4.90;;
64857;SDS011;51335;51.148;6.950;2022-11-15T01:53:15;8.90;;;4.85;;
64857;SDS011;51335;51.148;6.950;2022-11-15T01:53:47;7.95;;;5.18;;
64857;SDS011;51335;51.148;6.950;2022-11-15T01:54:21;6.85;;;4.65;;
64857;SDS011;51335;51.148;6.950;2022-11-15T01:54:55;7.68;;;5.15;;
64857;SDS011;51335;51.148;6.950;2022-11-15T01:55:30;9.45;;;5.07;;
64857;SDS011;51335;51.148;6.950;2022-11-15T01:56:02;8.05;;;4.95;;
64857;SDS011;51335;51.148;6.950;2022-11-15T01:56:37;7.93;;;5.22;;
64857;SDS011;51335;51.148;6.950;2022-11-15T01:57:13;8.02;;;4.70;;
64857;SDS011;51335;51.148;6.950;2022-11-15T01:57:44;6.78;;;4.53;;
64857;SDS011;51335;51.148;6.950;2022-11-15T01:58:18;7.20;;;5.10;;
64857;SDS011;51335;51.148;6.950;2022-11-15T01:58:48;12.57;;;5.28;;
64857;SDS011;51335;51.148;6.950;2022-11-15T01:59:20;10.57;;;5.38;;
64857;SDS011;51335;51.148;6.950;2022-11-15T01:59:51;7.50;;;5.03;;
64857;SDS011;51335;51.148;6.950;2022-11-15T02:00:22;8.98;;;5.00;;
64857;SDS011;51335;51.148;6.950;2022-11-15T02:00:52;6.93;;;4.80;;
64857;SDS011;51335;51.148;6.950;2022-11-15T02:01:23;6.75;;;4.90;;
64857;SDS011;51335;51.148;6.950;2022-11-15T02:01:55;9.02;;;5.18;;
64857;SDS011;51335;51.148;6.950;2022-11-15T02:02:26;7.13;;;5.20;;
64857;SDS011;51335;51.148;6.950;2022-11-15T02:02:56;9.98;;;4.82;;
64857;SDS011;51335;51.148;6.950;2022-11-15T02:03:29;9.93;;;5.22;;
64857;SDS011;51335;51.148;6.950;2022-11-15T02:04:07;9.93;;;5.43;;
64857;SDS011;51335;51.148;6.950;2022-11-15T02:04:46;7.38;;;4.93;;
64857;SDS011;51335;51.148;6.950;2022-11-15T02:05:17;10.38;;;5.28;;
64857;SDS011;51335;51.148;6.950;2022-11-15T02:05:47;8.27;;;4.80;;
64857;SDS011;51335;51.148;6.950;2022-11-15T02:06:20;8.45;;;5.05;;
64857;SDS011;51335;51.148;6.950;2022-11-15T02:06:51;7.00;;;4.75;;
64857;SDS011;51335;51.148;6.950;2022-11-15T02:07:22;9.85;;;4.90;;
64857;SDS011;51335;51.148;6.950;2022-11-15T02:07:53;7.03;;;4.82;;
64857;SDS011;51335;51.148;6.950;2022-11-15T02:08:24;7.85;;;4.88;;
64857;SDS011;51335;51.148;6.950;2022-11-15T02:08:54;11.07;;;5.20;;
64857;SDS011;51335;51.148;6.950;2022-11-15T02:09:26;8.57;;;5.35;;
64857;SDS011;51335;51.148;6.950;2022-11-15T02:10:02;10.48;;;5.20;;
64857;SDS011;51335;51.148;6.950;2022-11-15T02:10:37;10.35;;;5.10;;
64857;SDS011;51335;51.148;6.950;2022-11-15T02:11:07;7.78;;;5.00;;
64857;SDS011;51335;51.148;6.950;2022-11-15T02:11:38;11.45;;;4.97;;
64857;SDS011;51335;51.148;6.950;2022-11-15T02:12:08;13.30;;;5.13;;
64857;SDS011;51335;51.148;6.950;2022-11-15T02:12:40;10.63;;;5.00;;
64857;SDS011;51335;51.148;6.950;2022-11-15T02:13:11;9.10;;;5.15;;
64857;SDS011;51335;51.148;6.950;2022-11-15T02:13:42;7.47;;;5.00;;
64857;SDS011;51335;51.148;6.950;2022-11-15T02:14:14;7.22;;;4.88;;
64857;SDS011;51335;51.148;6.950;2022-11-15T02:14:48;7.50;;;5.10;;
64857;SDS011;51335;51.148;6.950;2022-11-15T02:15:23;6.50;;;4.45;;
64857;SDS011;51335;51.148;6.950;2022-11-15T02:17:34;9.80;;;5.13;;
64857;SDS011;51335;51.148;6.950;2022-11-15T02:18:26;9.98;;;4.80;;
64857;SDS011;51335;51.148;6.950;2022-11-15T02:19:18;8.13;;;4.90;;
64857;SDS011;51335;51.148;6.950;2022-11-15T02:20:48;8.75;;;4.57;;
64857;SDS011;51335;51.148;6.950;2022-11-15T02:27:08;6.82;;;4.25;;
64857;SDS011;51335;51.148;6.950;2022-11-15T02:29:02;7.00;;;4.70;;
64857;SDS011;51335;51.148;6.950;2022-11-15T02:31:32;8.93;;;5.05;;
64857;SDS011;51335;51.148;6.950;2022-11-15T02:32:44;7.57;;;5.13;;
64857;SDS011;51335;51.148;6.950;2022-11-15T02:35:48;8.73;;;5.20;;
64857;SDS011;51335;51.148;6.950;2022-11-15T02:36:36;7.80;;;4.78;;
64857;SDS011;51335;51.148;6.950;2022-11-15T02:37:45;9.20;;;5.13;;
64857;SDS011;51335;51.148;6.950;2022-11-15T02:38:24;6.82;;;4.90;;
64857;SDS011;51335;51.148;6.950;2022-11-15T02:39:52;10.45;;;5.30;;
64857;SDS011;51335;51.148;6.950;2022-11-15T02:41:04;10.02;;;5.38;;
64857;SDS011;51335;51.148;6.950;2022-11-15T02:41:48;7.88;;;5.25;;
64857;SDS011;51335;51.148;6.950;2022-11-15T02:42:42;7.78;;;4.65;;
64857;SDS011;51335;51.148;6.950;2022-11-15T02:43:25;10.32;;;5.22;;
64857;SDS011;51335;51.148;6.950;2022-11-15T02:44:08;8.25;;;5.20;;
64857;SDS011;51335;51.148;6.950;2022-11-15T02:44:45;9.10;;;5.20;;
64857;SDS011;51335;51.148;6.950;2022-11-15T02:45:21;7.50;;;5.40;;
64857;SDS011;51335;51.148;6.950;2022-11-15T02:46:00;9.20;;;5.40;;
64857;SDS011;51335;51.148;6.950;2022-11-15T02:46:35;10.68;;;5.43;;
64857;SDS011;51335;51.148;6.950;2022-11-15T02:47:07;8.25;;;5.18;;
64857;SDS011;51335;51.148;6.950;2022-11-15T02:47:43;7.63;;;4.88;;
64857;SDS011;51335;51.148;6.950;2022-11-15T02:48:15;12.57;;;5.30;;
64857;SDS011;51335;51.148;6.950;2022-11-15T02:48:48;7.80;;;5.03;;
64857;SDS011;51335;51.148;6.950;2022-11-15T02:49:20;9.82;;;5.15;;
64857;SDS011;51335;51.148;6.950;2022-11-15T02:49:53;9.68;;;5.22;;
64857;SDS011;51335;51.148;6.950;2022-11-15T02:50:27;9.38;;;5.18;;
64857;SDS011;51335;51.148;6.950;2022-11-15T02:50:59;6.47;;;5.05;;
64857;SDS011;51335;51.148;6.950;2022-11-15T02:51:30;8.05;;;5.00;;
64857;SDS011;51335;51.148;6.950;2022-11-15T02:52:03;7.97;;;4.90;;
64857;SDS011;51335;51.148;6.950;2022-11-15T02:52:33;7.18;;;5.00;;
64857;SDS011;51335;51.148;6.950;2022-11-15T02:53:03;8.88;;;5.30;;
64857;SDS011;51335;51.148;6.950;2022-11-15T02:53:34;7.32;;;5.03;;
64857;SDS011;51335;51.148;6.950;2022-11-15T02:54:04;7.85;;;5.28;;
64857;SDS011;51335;51.148;6.950;2022-11-15T02:54:34;8.82;;;5.38;;
64857;SDS011;51335;51.148;6.950;2022-11-15T02:55:05;6.90;;;4.95;;
64857;SDS011;51335;51.148;6.950;2022-11-15T02:55:55;7.63;;;5.30;;
64857;SDS011;51335;51.148;6.950;2022-11-15T02:56:26;9.25;;;4.70;;
64857;SDS011;51335;51.148;6.950;2022-11-15T02:57:01;9.60;;;4.95;;
64857;SDS011;51335;51.148;6.950;2022-11-15T02:57:44;9.15;;;5.03;;
64857;SDS011;51335;51.148;6.950;2022-11-15T03:00:19;11.73;;;4.82;;
64857;SDS011;51335;51.148;6.950;2022-11-15T03:03:29;7.65;;;4.55;;
64857;SDS011;51335;51.148;6.950;2022-11-15T03:04:58;6.97;;;4.88;;
64857;SDS011;51335;51.148;6.950;2022-11-15T03:07:39;8.35;;;4.72;;
64857;SDS011;51335;51.148;6.950;2022-11-15T03:11:03;9.38;;;5.03;;
64857;SDS011;51335;51.148;6.950;2022-11-15T03:11:41;9.05;;;5.20;;
64857;SDS011;51335;51.148;6.950;2022-11-15T03:12:20;7.00;;;4.55;;
64857;SDS011;51335;51.148;6.950;2022-11-15T03:15:36;8.52;;;4.88;;
64857;SDS011;51335;51.148;6.950;2022-11-15T03:16:03;10.48;;;4.63;;
64857;SDS011;51335;51.148;6.950;2022-11-15T03:17:13;7.75;;;5.00;;
64857;SDS011;51335;51.148;6.950;2022-11-15T03:18:31;8.95;;;4.72;;
64857;SDS011;51335;51.148;6.950;2022-11-15T03:18:48;7.47;;;4.68;;
64857;SDS011;51335;51.148;6.950;2022-11-15T03:20:22;9.05;;;4.30;;
64857;SDS011;51335;51.148;6.950;2022-11-15T03:20:54;11.13;;;5.18;;
64857;SDS011;51335;51.148;6.950;2022-11-15T03:21:27;8.98;;;5.35;;
64857;SDS011;51335;51.148;6.950;2022-11-15T03:22:03;8.98;;;5.55;;
64857;SDS011;51335;51.148;6.950;2022-11-15T03:22:36;8.50;;;4.82;;
64857;SDS011;51335;51.148;6.950;2022-11-15T03:23:10;6.63;;;4.78;;
64857;SDS011;51335;51.148;6.950;2022-11-15T03:23:40;8.02;;;4.88;;
64857;SDS011;51335;51.148;6.950;2022-11-15T03:24:12;7.07;;;4.78;;
64857;SDS011;51335;51.148;6.950;2022-11-15T03:24:46;6.78;;;4.75;;
64857;SDS011;51335;51.148;6.950;2022-11-15T03:25:20;8.07;;;4.85;;
64857;SDS011;51335;51.148;6.950;2022-11-15T03:25:54;7.63;;;4.65;;
64857;SDS011;51335;51.148;6.950;2022-11-15T03:26:25;10.32;;;4.95;;
64857;SDS011;51335;51.148;6.950;2022-11-15T03:26:58;13.35;;;5.25;;
64857;SDS011;51335;51.148;6.950;2022-11-15T03:27:31;8.63;;;5.20;;
64857;SDS011;51335;51.148;6.950;2022-11-15T03:28:06;7.95;;;4.63;;
64857;SDS011;51335;51.148;6.950;2022-11-15T03:28:44;8.48;;;4.85;;
64857;SDS011;51335;51.148;6.950;2022-11-15T03:29:27;6.88;;;4.40;;
64857;SDS011;51335;51.148;6.950;2022-11-15T03:30:04;9.48;;;5.30;;
64857;SDS011;51335;51.148;6.950;2022-11-15T03:30:36;10.32;;;4.85;;
64857;SDS011;51335;51.148;6.950;2022-11-15T03:31:08;8.93;;;5.07;;
64857;SDS011;51335;51.148;6.950;2022-11-15T03:31:43;12.82;;;5.00;;
64857;SDS011;51335;51.148;6.950;2022-11-15T03:32:18;8.38;;;4.88;;
64857;SDS011;51335;51.148;6.950;2022-11-15T03:32:54;7.78;;;5.05;;
64857;SDS011;51335;51.148;6.950;2022-11-15T03:33:26;7.20;;;4.72;;
64857;SDS011;51335;51.148;6.950;2022-11-15T03:33:58;8.23;;;4.60;;
64857;SDS011;51335;51.148;6.950;2022-11-15T03:35:14;10.88;;;5.10;;
64857;SDS011;51335;51.148;6.950;2022-11-15T03:35:53;7.05;;;4.93;;
64857;SDS011;51335;51.148;6.950;2022-11-15T03:36:25;7.07;;;4.65;;
64857;SDS011;51335;51.148;6.950;2022-11-15T03:36:56;8.75;;;4.70;;
64857;SDS011;51335;51.148;6.950;2022-11-15T03:37:29;8.35;;;4.85;;
64857;SDS011;51335;51.148;6.950;2022-11-15T03:38:06;7.18;;;4.78;;
64857;SDS011;51335;51.148;6.950;2022-11-15T03:38:45;8.90;;;4.80;;
64857;SDS011;51335;51.148;6.950;2022-11-15T03:39:15;6.03;;;4.45;;
64857;SDS011;51335;51.148;6.950;2022-11-15T03:39:46;8.77;;;4.55;;
64857;SDS011;51335;51.148;6.950;2022-11-15T03:40:16;9.90;;;4.78;;
64857;SDS011;51335;51.148;6.950;2022-11-15T03:40:54;7.57;;;4.80;;
64857;SDS011;51335;51.148;6.950;2022-11-15T03:41:30;7.05;;;4.70;;
64857;SDS011;51335;51.148;6.950;2022-11-15T03:43:57;8.15;;;4.38;;
64857;SDS011;51335;51.148;6.950;2022-11-15T03:45:24;6.82;;;4.70;;
64857;SDS011;51335;51.148;6.950;2022-11-15T03:46:00;7.82;;;4.57;;
64857;SDS011;51335;51.148;6.950;2022-11-15T03:46:42;8.07;;;4.38;;
64857;SDS011;51335;51.148;6.950;2022-11-15T03:47:19;6.25;;;4.45;;
64857;SDS011;51335;51.148;6.950;2022-11-15T03:48:32;7.88;;;4.47;;
64857;SDS011;51335;51.148;6.950;2022-11-15T03:49:11;9.07;;;4.85;;
64857;SDS011;51335;51.148;6.950;2022-11-15T03:49:50;7.30;;;4.55;;
64857;SDS011;51335;51.148;6.950;2022-11-15T03:50:22;7.38;;;4.25;;
64857;SDS011;51335;51.148;6.950;2022-11-15T03:50:54;9.00;;;4.93;;
64857;SDS011;51335;51.148;6.950;2022-11-15T03:51:25;7.53;;;4.45;;
64857;SDS011;51335;51.148;6.950;2022-11-15T03:51:58;6.82;;;4.55;;